Aneta, North Dakota
Current Conditions -  °F | °C
As of 6:27 PM on Wednesday 22 Oct 2014 (Local Time) from KRDR Reporting Station
Broken Clouds Broken Clouds  
Wind Chill: 55°   Ceiling: 8500
Heat Index: 55°   Visibility: 10mi
Dew Point: 55°   Wind: 10mph
Humidity: 100%   Direction: 230°SW
Pressure: 29.83"   Gusts: NA
Location:  47.68°N, 97.99°W
Report Text: KRDR 222327Z AUTO 23009KT 10SM FEW034 SCT055 BKN085 13/13 A2983 RMK AO2
Loading
Personal Weather Stations






























Interactive Weather Map
Tropical Storm Tracking
New forecast layout! Learn more

10-Day Weather Forecast

Advertisements
Track Severe Weather on mobile